Darstellungsparameter: Aktuell verwendete Einstellungen:
Skalierung der Graphiken ... ?
xyx+y,   Skalierungsfaktor:      Skalierung: Modus: x, Faktor: 1
Darstellungszeitraum ... ?
Vom - - bis: - -   Zeitraum: 01.10.2010 - 01.10.2010
Min/Max/Avg-Anzeige ... ?
Zeige MMA aktuell
Zeige MMA Monat
Zeige MMA alles
Zeige --A aktuell
Zeige --A Monat
Zeige --A alles
Keine MMA-Anzeige
MMA:
Minimum Maximum Average (ber die Originaldaten)
MMA-Basis: 01.10.2010 - 01.10.2010
Quicknavigation für Darstellung... ?
Tage:      1T, 2T, 3T, 5T -1T -2T -3T -5T +1T +2T +3T +5T
Wochen: 1W, 2W, 3W -1W -2W -3W +1W +2W +3W
Monate: 1M, 3M, 6M -1M -3M -6M +1M +3M +6M
Jahre:    1J, 3J, 5J, 10J -1J -3J -5J -10J +1J +3J +5J +10J
Nutze für die Darstellung ... ?
Originaldaten oder Mittelwerte auf ...
Stundenbasis Tagesbasis Wochenbasis
Monatsbasis Jahresbasis      Datenbasis: Original-Daten
Darstellen als:
Statistik (Auto) Statistik J:M      Darstellung:
Zur Graphik,    zurück zur Übersicht aller Sensoren.
 
Tabellarische Datenbersicht: ?
 
Sensor: Nr:Datum:Temp:Abs-Feuchte:Windchill:Wind:
Aussen-T/F 1 01-10-2010 00:03:03 12.1 C 10.08 g/m*3 12.1 C 0 km/h
2 01-10-2010 00:15:03 12 C 10.02 g/m*3 12 C 0 km/h
3 01-10-2010 00:27:03 12.1 C 10.08 g/m*3 12.1 C 0 km/h
4 01-10-2010 00:39:03 12.1 C 10.08 g/m*3 12.1 C 0 km/h
5 01-10-2010 00:51:03 11.8 C 10 g/m*3 11.8 C 0 km/h
6 01-10-2010 01:03:03 11.6 C 9.87 g/m*3 11.6 C 0 km/h
7 01-10-2010 01:15:04 11.7 C 9.94 g/m*3 11.7 C 0 km/h
8 01-10-2010 01:27:04 11.6 C 9.87 g/m*3 11.6 C 0 km/h
9 01-10-2010 01:39:04 11.5 C 9.81 g/m*3 11.5 C 0 km/h
10 01-10-2010 01:51:04 11.5 C 9.81 g/m*3 11.5 C 0 km/h
11 01-10-2010 02:03:04 11.5 C 9.81 g/m*3 11.5 C 0 km/h
12 01-10-2010 02:15:04 11.4 C 9.75 g/m*3 11.4 C 0 km/h
13 01-10-2010 02:27:04 11.4 C 9.75 g/m*3 11.4 C 0 km/h
14 01-10-2010 02:39:04 11.4 C 9.75 g/m*3 11.4 C 0 km/h
15 01-10-2010 02:51:04 11.5 C 9.81 g/m*3 11.5 C 0 km/h
16 01-10-2010 03:03:04 11.5 C 9.81 g/m*3 11.5 C 0 km/h
17 01-10-2010 03:15:04 11.5 C 9.81 g/m*3 11.5 C 0 km/h
18 01-10-2010 03:27:04 11.5 C 9.81 g/m*3 11.5 C 0 km/h
19 01-10-2010 03:39:04 11.5 C 9.81 g/m*3 11.5 C 0 km/h
20 01-10-2010 03:51:04 11.8 C 10 g/m*3 11.8 C 0 km/h
21 01-10-2010 04:03:04 11.7 C 9.94 g/m*3 11.7 C 0 km/h
22 01-10-2010 04:15:04 11.7 C 9.94 g/m*3 11.7 C 0 km/h
23 01-10-2010 04:27:04 11.7 C 9.94 g/m*3 11.7 C 0 km/h
24 01-10-2010 04:39:04 11.7 C 9.94 g/m*3 11.7 C 0 km/h
25 01-10-2010 04:51:04 11.7 C 9.94 g/m*3 11.7 C 0 km/h
Sensor: Nr:Datum:Temp:Abs-Feuchte:Windchill:Wind:
Aussen-T/F 26 01-10-2010 05:03:04 11.7 C 9.94 g/m*3 11.7 C 0 km/h
27 01-10-2010 05:15:04 11.7 C 9.94 g/m*3 11.7 C 0 km/h
28 01-10-2010 05:27:04 11.7 C 9.94 g/m*3 11.7 C 0 km/h
29 01-10-2010 05:39:04 11.5 C 9.81 g/m*3 11.5 C 0 km/h
30 01-10-2010 05:51:05 11.5 C 9.81 g/m*3 11.5 C 0 km/h
31 01-10-2010 06:03:05 11.4 C 9.75 g/m*3 11.4 C 0 km/h
32 01-10-2010 06:15:05 11.4 C 9.75 g/m*3 11.4 C 0 km/h
33 01-10-2010 06:27:05 11.4 C 9.75 g/m*3 11.4 C 0 km/h
34 01-10-2010 06:39:05 11.4 C 9.75 g/m*3 11.4 C 0 km/h
35 01-10-2010 06:51:05 11.4 C 9.75 g/m*3 11.4 C 0 km/h
36 01-10-2010 07:03:05 11.3 C 9.69 g/m*3 11.3 C 0 km/h
37 01-10-2010 07:15:02 11.3 C 9.69 g/m*3 11.3 C 0 km/h
38 01-10-2010 07:27:02 11 C 9.51 g/m*3 11 C 0 km/h
39 01-10-2010 07:39:02 10.8 C 9.39 g/m*3 10.8 C 0 km/h
40 01-10-2010 07:51:02 10.6 C 9.27 g/m*3 10.6 C 0 km/h
41 01-10-2010 08:03:02 10.4 C 9.16 g/m*3 10.4 C 0 km/h
42 01-10-2010 08:15:02 10.3 C 9.1 g/m*3 10.3 C 0 km/h
43 01-10-2010 08:27:02 10.2 C 9.04 g/m*3 10.2 C 0 km/h
44 01-10-2010 08:39:02 10.2 C 9.04 g/m*3 10.2 C 0 km/h
45 01-10-2010 08:51:02 10.4 C 9.16 g/m*3 10.4 C 0 km/h
46 01-10-2010 09:03:02 10.7 C 9.33 g/m*3 10.7 C 0 km/h
47 01-10-2010 09:15:01 11.1 C 9.57 g/m*3 11.1 C 0 km/h
48 01-10-2010 09:27:01 11.3 C 9.69 g/m*3 11.3 C 0 km/h
49 01-10-2010 09:39:02 11.4 C 9.75 g/m*3 11.4 C 0 km/h
50 01-10-2010 09:51:02 11.7 C 9.94 g/m*3 11.7 C 0 km/h
Sensor: Nr:Datum:Temp:Abs-Feuchte:Windchill:Wind:
Aussen-T/F 51 01-10-2010 10:03:02 11.7 C 9.94 g/m*3 11.7 C 0 km/h
52 01-10-2010 10:15:02 11.7 C 9.83 g/m*3 11.7 C 0 km/h
53 01-10-2010 10:27:02 11.6 C 9.56 g/m*3 11.6 C 0 km/h
54 01-10-2010 10:39:02 11.7 C 9.52 g/m*3 11.7 C 0 km/h
55 01-10-2010 10:51:02 11.9 C 9.32 g/m*3 11.9 C 0 km/h
56 01-10-2010 11:03:02 12.1 C 9.12 g/m*3 12.1 C 0 km/h
57 01-10-2010 11:15:02 12.2 C 8.85 g/m*3 12.2 C 0 km/h
58 01-10-2010 11:27:02 12.5 C 8.91 g/m*3 12.5 C 0 km/h
59 01-10-2010 11:39:02 12.5 C 8.69 g/m*3 12.5 C 0 km/h
60 01-10-2010 11:51:02 13 C 8.62 g/m*3 13 C 0 km/h
61 01-10-2010 12:03:02 12.8 C 8.51 g/m*3 12.8 C 0 km/h
62 01-10-2010 12:15:02 12.8 C 8.62 g/m*3 12.8 C 0 km/h
63 01-10-2010 12:27:02 12.7 C 8.46 g/m*3 12.7 C 0 km/h
64 01-10-2010 12:39:02 12.4 C 8.41 g/m*3 12.4 C 0 km/h
65 01-10-2010 12:51:02 12.7 C 8.46 g/m*3 12.7 C 0 km/h
66 01-10-2010 13:03:01 12.8 C 8.4 g/m*3 12.8 C 0 km/h
67 01-10-2010 13:15:02 13.3 C 8.32 g/m*3 13.3 C 0 km/h
68 01-10-2010 13:27:02 13.4 C 8.14 g/m*3 13.4 C 0 km/h
69 01-10-2010 13:39:01 13.1 C 7.76 g/m*3 13.1 C 0 km/h
70 01-10-2010 13:51:02 13.3 C 7.97 g/m*3 13.3 C 0 km/h
71 01-10-2010 14:03:01 13.1 C 7.87 g/m*3 13.1 C 0 km/h
72 01-10-2010 14:15:01 13.2 C 8.04 g/m*3 13.2 C 0 km/h
73 01-10-2010 14:27:01 13.3 C 7.86 g/m*3 13.3 C 0 km/h
74 01-10-2010 14:39:02 13.2 C 7.92 g/m*3 13.2 C 0 km/h
75 01-10-2010 14:51:02 13.8 C 7.98 g/m*3 13.8 C 0 km/h
Sensor: Nr:Datum:Temp:Abs-Feuchte:Windchill:Wind:
Aussen-T/F 76 01-10-2010 15:03:02 14.4 C 7.91 g/m*3 14.4 C 0 km/h
77 01-10-2010 15:15:02 15.2 C 7.92 g/m*3 15.2 C 0 km/h
78 01-10-2010 15:27:02 15.3 C 7.7 g/m*3 15.3 C 0 km/h
79 01-10-2010 15:39:02 15.7 C 7.76 g/m*3 15.7 C 0 km/h
80 01-10-2010 15:51:02 15.9 C 7.58 g/m*3 15.9 C 0 km/h
81 01-10-2010 16:03:02 16 C 7.49 g/m*3 16 C 0 km/h
82 01-10-2010 16:15:02 16.2 C 7.17 g/m*3 16.2 C 0 km/h
83 01-10-2010 16:27:02 17.1 C 7.42 g/m*3 17.1 C 0 km/h
84 01-10-2010 16:39:02 17.2 C 7.91 g/m*3 17.2 C 0 km/h
85 01-10-2010 16:51:02 17.2 C 8.05 g/m*3 17.2 C 0 km/h
86 01-10-2010 17:03:02 17.5 C 7.9 g/m*3 17.5 C 0 km/h
87 01-10-2010 17:15:02 16.6 C 8.19 g/m*3 16.6 C 0 km/h
88 01-10-2010 17:27:02 16 C 8.31 g/m*3 16 C 0 km/h
89 01-10-2010 17:39:02 15.4 C 8.54 g/m*3 15.4 C 0 km/h
90 01-10-2010 17:51:02 15.2 C 8.7 g/m*3 15.2 C 0 km/h
91 01-10-2010 18:03:02 14.8 C 8.74 g/m*3 14.8 C 0 km/h
92 01-10-2010 18:15:02 14.7 C 8.94 g/m*3 14.7 C 0 km/h
93 01-10-2010 18:27:02 14.5 C 8.83 g/m*3 14.5 C 0 km/h
94 01-10-2010 18:39:01 14.1 C 8.74 g/m*3 14.1 C 0 km/h
95 01-10-2010 18:51:02 13.6 C 8.71 g/m*3 13.6 C 0 km/h
96 01-10-2010 19:03:01 12.8 C 8.62 g/m*3 12.8 C 0 km/h
97 01-10-2010 19:15:02 12.5 C 8.58 g/m*3 12.5 C 0 km/h
98 01-10-2010 19:27:02 12.2 C 8.52 g/m*3 12.2 C 0 km/h
99 01-10-2010 19:39:02 11.8 C 8.53 g/m*3 11.8 C 0 km/h
100 01-10-2010 19:51:02 11.6 C 8.52 g/m*3 11.6 C 0 km/h
Sensor: Nr:Datum:Temp:Abs-Feuchte:Windchill:Wind:
Aussen-T/F 101 01-10-2010 20:03:02 11.4 C 8.42 g/m*3 11.4 C 0 km/h
102 01-10-2010 20:15:02 11.3 C 8.47 g/m*3 11.3 C 0 km/h
103 01-10-2010 20:27:02 11.2 C 8.51 g/m*3 11.2 C 0 km/h
104 01-10-2010 20:39:02 11.2 C 8.51 g/m*3 11.2 C 0 km/h
105 01-10-2010 20:51:01 11.2 C 8.62 g/m*3 11.2 C 0 km/h
106 01-10-2010 21:03:02 11.1 C 8.56 g/m*3 11.1 C 0 km/h
107 01-10-2010 21:15:01 11 C 8.51 g/m*3 11 C 0 km/h
108 01-10-2010 21:27:01 10.8 C 8.5 g/m*3 10.8 C 0 km/h
109 01-10-2010 21:39:01 10.7 C 8.55 g/m*3 10.7 C 0 km/h
110 01-10-2010 21:51:01 10.7 C 8.55 g/m*3 10.7 C 0 km/h
111 01-10-2010 22:03:02 10.8 C 8.7 g/m*3 10.8 C 0 km/h
112 01-10-2010 22:15:02 10.9 C 8.75 g/m*3 10.9 C 0 km/h
113 01-10-2010 22:27:02 11 C 8.81 g/m*3 11 C 0 km/h
114 01-10-2010 22:39:01 11.1 C 8.76 g/m*3 11.1 C 0 km/h
115 01-10-2010 22:52:04 11.1 C 8.76 g/m*3 11.1 C 0 km/h
116 01-10-2010 23:04:04 11.1 C 8.76 g/m*3 11.1 C 0 km/h
117 01-10-2010 23:16:04 11.1 C 8.76 g/m*3 11.1 C 0 km/h
118 01-10-2010 23:28:04 11 C 8.71 g/m*3 11 C 0 km/h
119 01-10-2010 23:40:04 11 C 8.71 g/m*3 11 C 0 km/h
120 01-10-2010 23:52:04 11.1 C 8.76 g/m*3 11.1 C 0 km/h

Legende:
   Min
   Max


Maximal/Minimal-Werte vom 01.10.2010 - 01.10.2010

Sensor Min Max Avg
Temp
(Aussen-T/F)
10.2 °C
01-10-2010  08:27:02
17.5 °C
01-10-2010  17:03:02
12.34 °C
Abs-Feuchte
(Aussen-T/F)
7.17 g/m*3
01-10-2010  16:15:02
10.08 g/m*3
01-10-2010  00:03:03
8.93 g/m*3
Windchill
(Aussen-T/F)
10.2 C
01-10-2010  08:27:02
17.5 C
01-10-2010  17:03:02
12.23 C

Die Daten stammen von einer Davis Vantage Pro 2 Wetter-Station und werden unter Linux mit der Software wview2wettercgi und aufbereitet. Alle Angaben erfolgen ohne Gewähr für ihre Vollständigkeit oder Richtigkeit.
Kontakt: Rainer Krienke krienke@uni-koblenz.de . Meine Webseiten an der Uni Koblenz oder privat.
Version: $Revision: 0.78 $